Time;durP1;ratioP1;P1;durP2;ratioP2;P2;SDS_P1;SDS_P2;PMS_P1;PMS_P2;Temp;Humidity;BMP_temperature;BMP_pressure;BME280_temperature;BME280_humidity;BME280_pressure;Samples;Min_cycle;Max_cycle;Signal;HPM_P1;HPM_P2
2021/03/04 00:02:23;;;;;;;64.20;29.50;;;51.20;2227.20;;;;;;5090744;28;20481;-74
2021/03/04 00:04:49;;;;;;;56.53;28.40;;;51.20;2227.20;;;;;;5090724;28;20028;-74
2021/03/04 00:07:15;;;;;;;57.95;28.67;;;51.20;2227.20;;;;;;5090587;28;20051;-74
2021/03/04 00:09:40;;;;;;;65.53;32.30;;;51.20;2227.20;;;;;;5095057;28;20035;-73
2021/03/04 00:12:06;;;;;;;64.57;32.08;;;51.30;2227.20;;;;;;5097035;28;20089;-74
2021/03/04 00:14:32;;;;;;;76.15;34.42;;;51.20;2227.20;;;;;;5091792;28;20024;-75
2021/03/04 00:16:58;;;;;;;86.55;34.83;;;51.20;2227.20;;;;;;5094975;28;20469;-75
2021/03/04 00:19:24;;;;;;;95.53;39.00;;;51.20;2227.20;;;;;;5084744;28;20034;-73
2021/03/04 00:21:50;;;;;;;85.07;39.65;;;51.20;2227.20;;;;;;5109982;28;20114;-74
2021/03/04 00:24:16;;;;;;;73.20;35.75;;;26.50;2201.60;;;;;;5106873;28;20122;-75
2021/03/04 00:26:41;;;;;;;66.22;33.90;;;26.50;2201.60;;;;;;5108529;28;20372;-73
2021/03/04 00:29:07;;;;;;;83.13;35.80;;;51.20;2227.20;;;;;;5109308;28;20107;-73
2021/03/04 00:31:33;;;;;;;76.22;33.95;;;26.50;2201.60;;;;;;5106500;28;20097;-73
2021/03/04 00:33:59;;;;;;;66.07;32.28;;;26.50;2201.60;;;;;;5111623;28;20022;-73
2021/03/04 00:36:24;;;;;;;79.53;36.53;;;26.50;2201.60;;;;;;5102997;28;20361;-73
2021/03/04 00:38:50;;;;;;;83.72;40.67;;;51.20;2227.20;;;;;;5107854;28;20045;-73
2021/03/04 00:41:16;;;;;;;93.35;40.60;;;51.20;2227.20;;;;;;5101114;28;20028;-78
2021/03/04 00:43:41;;;;;;;71.13;33.83;;;51.20;2227.20;;;;;;5094334;28;20389;-74
2021/03/04 00:46:07;;;;;;;54.90;29.42;;;26.40;2201.60;;;;;;5094131;28;20048;-73
2021/03/04 00:48:33;;;;;;;63.70;31.83;;;26.20;2201.60;;;;;;5093965;28;20025;-74
2021/03/04 00:50:58;;;;;;;71.78;33.85;;;26.10;2201.60;;;;;;5093968;28;20020;-73
2021/03/04 00:53:24;;;;;;;84.07;38.25;;;26.10;2201.60;;;;;;5094636;28;20062;-73
2021/03/04 00:55:50;;;;;;;88.60;38.67;;;26.10;2201.60;;;;;;5092891;28;20012;-73
2021/03/04 00:58:15;;;;;;;85.90;40.53;;;26.10;2201.60;;;;;;5093984;28;20035;-75
2021/03/04 01:00:41;;;;;;;94.05;43.60;;;26.20;2201.60;;;;;;5093681;28;20047;-73
2021/03/04 01:03:07;;;;;;;98.88;44.33;;;26.20;2201.60;;;;;;5093778;28;20062;-74
2021/03/04 01:05:33;;;;;;;92.97;42.55;;;26.30;2201.60;;;;;;5093736;28;20062;-73
2021/03/04 01:07:59;;;;;;;97.30;44.03;;;26.40;2201.60;;;;;;5093585;28;20055;-73
2021/03/04 01:10:38;;;;;;;94.10;42.65;;;26.50;2201.60;;;;;;5093294;28;20024;-74
2021/03/04 01:13:04;;;;;;;85.28;39.63;;;26.50;2201.60;;;;;;5093697;28;21939;-75
2021/03/04 01:15:32;;;;;;;71.47;34.42;;;26.50;2201.60;;;;;;5090096;28;20103;-73
2021/03/04 01:17:58;;;;;;;61.97;31.45;;;26.50;2201.60;;;;;;5093589;28;20020;-73
2021/03/04 01:20:24;;;;;;;59.63;26.02;;;26.40;2201.60;;;;;;5093428;28;20481;-74
2021/03/04 01:22:50;;;;;;;52.85;24.23;;;26.50;2201.60;;;;;;5089380;28;20500;-73
2021/03/04 01:25:17;;;;;;;45.05;21.30;;;51.20;2227.20;;;;;;5094222;28;20035;-76
2021/03/04 01:27:43;;;;;;;46.60;22.05;;;51.30;2227.20;;;;;;5093021;28;20020;-73
2021/03/04 01:30:11;;;;;;;42.50;22.48;;;51.40;2227.20;;;;;;5093368;28;20020;-75
2021/03/04 01:32:38;;;;;;;44.28;21.85;;;51.50;2227.20;;;;;;5093837;28;20496;-73
2021/03/04 01:35:05;;;;;;;40.08;21.90;;;51.60;2227.20;;;;;;5093466;28;20024;-72
2021/03/04 01:37:31;;;;;;;52.13;23.92;;;51.60;2227.20;;;;;;5075205;28;20366;-74
2021/03/04 01:39:56;;;;;;;50.80;25.33;;;51.50;2227.20;;;;;;5092903;28;20024;-73
2021/03/04 01:42:22;;;;;;;51.25;25.98;;;51.30;2227.20;;;;;;5093205;28;20032;-72
2021/03/04 01:44:48;;;;;;;52.92;26.35;;;51.20;2227.20;;;;;;5093163;28;20028;-73
2021/03/04 01:47:14;;;;;;;56.65;27.60;;;26.50;2201.60;;;;;;5093165;28;20046;-73
2021/03/04 01:49:40;;;;;;;54.00;27.60;;;26.30;2201.60;;;;;;5092808;28;20028;-73
2021/03/04 01:52:07;;;;;;;50.35;25.27;;;26.20;2201.60;;;;;;5092607;28;20512;-74
2021/03/04 01:54:33;;;;;;;51.70;25.77;;;26.10;2201.60;;;;;;5092211;28;20103;-74
2021/03/04 01:56:59;;;;;;;49.38;24.60;;;26.10;2201.60;;;;;;5093123;28;20473;-74
2021/03/04 01:59:25;;;;;;;50.67;25.90;;;25.90;2201.60;;;;;;5092584;28;20095;-75
2021/03/04 02:01:51;;;;;;;49.70;25.02;;;25.60;2201.60;;;;;;5093070;28;20107;-75
2021/03/04 02:04:16;;;;;;;53.28;25.08;;;25.60;2201.60;;;;;;5092526;28;20034;-74
2021/03/04 02:06:51;;;;;;;47.15;23.50;;;25.80;2201.60;;;;;;5092427;28;20056;-77
2021/03/04 02:09:20;;;;;;;52.22;23.95;;;25.90;2201.60;;;;;;5092643;28;20023;-76
2021/03/04 02:11:52;;;;;;;58.03;29.05;;;25.90;2201.60;;;;;;5092583;28;20028;-74
2021/03/04 02:14:32;;;;;;;49.33;24.38;;;25.90;2201.60;;;;;;5092697;28;20023;-73
2021/03/04 02:17:05;;;;;;;37.13;18.65;;;25.90;2201.60;;;;;;5092516;28;20020;-74
2021/03/04 02:20:00;;;;;;;41.78;19.60;;;25.80;2201.60;;;;;;5092331;28;20031;-73
2021/03/04 02:22:40;;;;;;;62.50;27.40;;;26.00;2201.60;;;;;;5092328;28;20020;-78
2021/03/04 02:25:24;;;;;;;40.50;21.20;;;26.20;2201.60;;;;;;5092840;28;20059;-76
2021/03/04 02:27:51;;;;;;;41.15;21.77;;;26.10;2201.60;;;;;;5092205;28;20069;-73
2021/03/04 02:30:26;;;;;;;38.10;21.33;;;26.00;2201.60;;;;;;5091981;28;20024;-77
2021/03/04 02:32:58;;;;;;;38.50;20.80;;;26.10;2201.60;;;;;;5092428;28;20065;-74
2021/03/04 02:35:29;;;;;;;43.80;22.95;;;26.20;2201.60;;;;;;5092159;28;20095;-74
2021/03/04 02:38:01;;;;;;;38.78;20.05;;;26.10;2201.60;;;;;;5078815;28;20015;-75
2021/03/04 02:40:30;;;;;;;34.67;19.20;;;26.10;2201.60;;;;;;5091994;28;20081;-73
2021/03/04 02:42:57;;;;;;;38.95;18.65;;;26.20;2201.60;;;;;;5091609;28;20020;-73
2021/03/04 02:45:25;;;;;;;35.50;18.75;;;26.30;2201.60;;;;;;5073960;28;20028;-73
2021/03/04 02:47:51;;;;;;;37.35;20.65;;;26.40;2201.60;;;;;;5091773;28;20023;-72
2021/03/04 02:50:20;;;;;;;40.97;21.60;;;26.50;2201.60;;;;;;5091662;28;20065;-73
2021/03/04 02:52:47;;;;;;;36.97;19.48;;;26.30;2201.60;;;;;;5073533;28;20028;-73
2021/03/04 02:55:14;;;;;;;36.92;19.10;;;26.20;2201.60;;;;;;5092064;28;20019;-74
2021/03/04 02:57:42;;;;;;;39.50;21.40;;;26.40;2201.60;;;;;;5091891;28;20028;-73
2021/03/04 03:00:10;;;;;;;40.92;21.67;;;26.30;2201.60;;;;;;5091698;28;20024;-73
2021/03/04 03:02:37;;;;;;;40.00;19.67;;;26.10;2201.60;;;;;;5073569;28;20408;-73
2021/03/04 03:05:10;;;;;;;39.10;19.67;;;26.10;2201.60;;;;;;5091713;28;20016;-74
2021/03/04 03:07:41;;;;;;;35.15;19.23;;;26.30;2201.60;;;;;;5091482;28;20060;-73
2021/03/04 03:10:09;;;;;;;39.28;21.23;;;26.50;2201.60;;;;;;5091156;28;20107;-73
2021/03/04 03:12:38;;;;;;;35.90;20.00;;;51.20;2227.20;;;;;;5091671;28;20107;-75
2021/03/04 03:15:09;;;;;;;37.08;19.98;;;51.20;2227.20;;;;;;5091563;28;20423;-73
2021/03/04 03:17:35;;;;;;;35.35;19.10;;;51.20;2227.20;;;;;;5091425;28;20465;-73
2021/03/04 03:20:04;;;;;;;34.80;20.17;;;51.20;2227.20;;;;;;5091240;28;20081;-73
2021/03/04 03:22:30;;;;;;;31.77;16.70;;;51.20;2227.20;;;;;;5091406;28;20482;-74
2021/03/04 03:24:56;;;;;;;27.63;15.25;;;26.50;2201.60;;;;;;5091421;28;20070;-74
2021/03/04 03:27:22;;;;;;;31.38;17.13;;;26.50;2201.60;;;;;;5091249;28;20544;-73
2021/03/04 03:29:47;;;;;;;33.00;17.52;;;51.20;2227.20;;;;;;5091216;28;20024;-73
2021/03/04 03:32:14;;;;;;;29.98;16.33;;;26.50;2201.60;;;;;;5091446;28;20376;-73
2021/03/04 03:34:41;;;;;;;30.77;16.23;;;26.40;2201.60;;;;;;5091431;28;20035;-74
2021/03/04 03:37:08;;;;;;;29.05;15.95;;;26.40;2201.60;;;;;;5090900;28;20065;-73
2021/03/04 03:39:35;;;;;;;32.83;16.90;;;26.30;2201.60;;;;;;5073140;28;20427;-74
2021/03/04 03:42:03;;;;;;;35.50;18.23;;;26.30;2201.60;;;;;;5091272;28;20384;-75
2021/03/04 03:44:29;;;;;;;31.50;16.90;;;26.40;2201.60;;;;;;5091260;28;20021;-74
2021/03/04 03:46:55;;;;;;;28.83;16.08;;;26.40;2201.60;;;;;;5093680;28;20506;-74
2021/03/04 03:49:23;;;;;;;29.67;16.70;;;26.30;2201.60;;;;;;5094840;28;20130;-73
2021/03/04 03:51:49;;;;;;;29.38;16.02;;;26.30;2201.60;;;;;;5095173;28;20023;-73
2021/03/04 03:54:16;;;;;;;32.47;18.13;;;26.20;2201.60;;;;;;5094876;28;20070;-74
2021/03/04 03:56:42;;;;;;;34.70;16.55;;;26.30;2201.60;;;;;;5095508;28;20103;-73
2021/03/04 03:59:11;;;;;;;31.55;15.93;;;26.30;2201.60;;;;;;5094549;28;20020;-73
2021/03/04 04:01:38;;;;;;;30.13;16.85;;;26.40;2201.60;;;;;;5095309;28;20032;-74
2021/03/04 04:04:04;;;;;;;30.98;17.08;;;26.40;2201.60;;;;;;5094678;28;20050;-74
2021/03/04 04:06:31;;;;;;;32.60;16.55;;;26.50;2201.60;;;;;;5094152;28;20143;-74
2021/03/04 04:08:58;;;;;;;38.78;20.35;;;26.50;2201.60;;;;;;5094705;28;20035;-73
2021/03/04 04:11:29;;;;;;;32.38;18.73;;;26.50;2201.60;;;;;;5094818;28;20028;-73
2021/03/04 04:13:56;;;;;;;31.50;17.20;;;51.20;2227.20;;;;;;5095166;28;20446;-75
2021/03/04 04:16:24;;;;;;;31.42;17.55;;;26.50;2201.60;;;;;;5094829;28;20016;-74
2021/03/04 04:18:51;;;;;;;31.77;18.00;;;26.50;2201.60;;;;;;5094538;28;20046;-75
2021/03/04 04:21:18;;;;;;;33.75;17.70;;;51.20;2227.20;;;;;;5094714;28;20039;-74
2021/03/04 04:23:45;;;;;;;31.20;16.70;;;51.20;2227.20;;;;;;5094736;28;20023;-75
2021/03/04 04:26:11;;;;;;;32.42;18.75;;;51.30;2227.20;;;;;;5094615;28;20056;-73
2021/03/04 04:28:37;;;;;;;36.75;19.25;;;51.20;2227.20;;;;;;5093401;28;20020;-75
2021/03/04 04:31:03;;;;;;;35.00;18.42;;;26.50;2201.60;;;;;;5094529;28;20049;-74
2021/03/04 04:33:29;;;;;;;31.35;17.35;;;26.40;2201.60;;;;;;5094324;28;20020;-75
2021/03/04 04:35:54;;;;;;;35.72;18.88;;;26.50;2201.60;;;;;;5094644;28;20027;-75
2021/03/04 04:38:20;;;;;;;36.85;18.65;;;26.50;2201.60;;;;;;5094212;28;20042;-74
2021/03/04 04:40:46;;;;;;;41.28;20.95;;;51.20;2227.20;;;;;;5094312;28;20031;-73
2021/03/04 04:43:12;;;;;;;39.78;20.55;;;26.50;2201.60;;;;;;5094407;28;20389;-73
2021/03/04 04:45:37;;;;;;;39.33;20.67;;;26.50;2201.60;;;;;;5094385;28;20031;-74
2021/03/04 04:48:04;;;;;;;40.50;21.60;;;26.40;2201.60;;;;;;5094187;28;20081;-74
2021/03/04 04:50:29;;;;;;;40.08;21.45;;;26.40;2201.60;;;;;;5093619;28;20048;-74
2021/03/04 04:52:55;;;;;;;36.35;19.20;;;26.40;2201.60;;;;;;5094086;28;20073;-75
2021/03/04 04:55:21;;;;;;;31.00;17.65;;;26.30;2201.60;;;;;;5094277;28;20481;-73
2021/03/04 04:57:48;;;;;;;32.15;17.08;;;26.40;2201.60;;;;;;5093838;28;20091;-75
2021/03/04 05:00:14;;;;;;;30.67;16.77;;;26.40;2201.60;;;;;;5093656;28;20485;-75
2021/03/04 05:02:40;;;;;;;28.10;16.73;;;26.40;2201.60;;;;;;5093892;28;20376;-74
2021/03/04 05:05:06;;;;;;;30.17;17.30;;;26.40;2201.60;;;;;;5093706;28;20032;-74
2021/03/04 05:07:33;;;;;;;30.23;17.13;;;26.50;2201.60;;;;;;5093843;28;20131;-78
2021/03/04 05:09:58;;;;;;;29.55;18.00;;;26.50;2201.60;;;;;;5092058;28;20405;-77
2021/03/04 05:12:24;;;;;;;33.20;18.50;;;51.20;2227.20;;;;;;5093930;28;20030;-73
2021/03/04 05:14:51;;;;;;;30.23;16.88;;;51.30;2227.20;;;;;;5093530;28;20108;-74
2021/03/04 05:17:21;;;;;;;31.65;17.10;;;51.30;2227.20;;;;;;5093808;28;20106;-74
2021/03/04 05:19:47;;;;;;;30.38;16.63;;;51.20;2227.20;;;;;;5093126;28;20488;-74
2021/03/04 05:22:13;;;;;;;33.20;18.42;;;51.20;2227.20;;;;;;5093672;28;20073;-74
2021/03/04 05:24:38;;;;;;;33.60;17.77;;;51.30;2227.20;;;;;;5093726;28;20017;-75
2021/03/04 05:27:04;;;;;;;32.13;16.48;;;51.40;2227.20;;;;;;5093420;28;20089;-74
2021/03/04 05:29:30;;;;;;;37.30;18.88;;;51.60;2227.20;;;;;;5093261;28;20016;-74
2021/03/04 05:31:56;;;;;;;38.38;19.92;;;51.90;2227.20;;;;;;5093298;28;20032;-75
2021/03/04 05:34:21;;;;;;;37.97;20.95;;;77.00;2227.20;;;;;;5093365;28;20031;-75
2021/03/04 05:36:47;;;;;;;37.58;20.63;;;77.70;2227.20;;;;;;5104798;28;20027;-75
2021/03/04 05:39:13;;;;;;;41.85;22.10;;;102.40;2227.20;;;;;;5092798;28;20158;-76
2021/03/04 05:41:40;;;;;;;38.42;21.52;;;102.50;2227.20;;;;;;5093261;28;20070;-76
2021/03/04 05:44:06;;;;;;;33.80;18.90;;;102.60;2201.60;;;;;;5092741;28;20105;-75
2021/03/04 05:46:34;;;;;;;31.45;18.63;;;102.70;2176.00;;;;;;5093379;28;20039;-73
2021/03/04 05:49:01;;;;;;;35.63;21.08;;;102.90;2124.80;;;;;;5092525;28;20059;-73
2021/03/04 05:51:32;;;;;;;40.33;22.48;;;102.90;2124.80;;;;;;5093075;28;20089;-75
2021/03/04 05:53:59;;;;;;;53.90;31.02;;;102.90;2124.80;;;;;;5090292;28;20028;-75
2021/03/04 05:56:25;;;;;;;40.17;23.40;;;103.10;2099.20;;;;;;5093198;28;20081;-75
2021/03/04 05:58:52;;;;;;;33.63;19.85;;;103.10;2073.60;;;;;;5092491;28;20035;-74
2021/03/04 06:01:19;;;;;;;32.38;19.20;;;128.40;2048.00;;;;;;5096507;28;20067;-73
2021/03/04 06:03:45;;;;;;;30.63;18.40;;;153.70;1920.00;;;;;;5092696;28;20028;-74
2021/03/04 06:06:12;;;;;;;32.95;19.40;;;153.60;1945.60;;;;;;5092290;28;20065;-74
2021/03/04 06:08:38;;;;;;;36.65;21.05;;;153.60;1945.60;;;;;;5094429;28;20022;-78
2021/03/04 06:11:06;;;;;;;41.88;21.95;;;153.60;1945.60;;;;;;5092726;28;20051;-74
2021/03/04 06:13:32;;;;;;;42.80;21.85;;;153.90;1920.00;;;;;;5092328;28;20495;-75
2021/03/04 06:16:00;;;;;;;43.30;23.67;;;154.00;1894.40;;;;;;5102080;28;20023;-73
2021/03/04 06:18:37;;;;;;;47.08;24.10;;;153.90;1894.40;;;;;;5108880;28;20476;-75
2021/03/04 06:21:03;;;;;;;46.22;23.83;;;154.00;1894.40;;;;;;5111197;28;20023;-74
2021/03/04 06:23:32;;;;;;;38.50;21.27;;;154.10;1868.80;;;;;;5111651;28;20053;-74
2021/03/04 06:25:57;;;;;;;35.67;20.30;;;154.50;1843.20;;;;;;5112286;28;20024;-75
2021/03/04 06:28:33;;;;;;;36.92;22.17;;;179.30;1792.00;;;;;;5107929;28;20087;-75
2021/03/04 06:30:58;;;;;;;37.13;22.73;;;179.70;1766.40;;;;;;5105283;28;20023;-75
2021/03/04 06:33:35;;;;;;;36.00;21.60;;;179.90;1766.40;;;;;;5106520;28;20019;-75
2021/03/04 06:36:12;;;;;;;36.00;21.50;;;180.00;1740.80;;;;;;5107005;28;20028;-74
2021/03/04 06:38:38;;;;;;;36.65;22.08;;;204.90;1689.60;;;;;;5109823;28;20662;-74
2021/03/04 06:41:03;;;;;;;38.35;22.85;;;205.20;1689.60;;;;;;5110996;28;20019;-74
2021/03/04 06:43:29;;;;;;;37.42;23.63;;;205.70;1638.40;;;;;;5111481;28;20031;-75
2021/03/04 06:46:05;;;;;;;41.30;25.25;;;230.40;1638.40;;;;;;5108720;28;20019;-75
2021/03/04 06:48:31;;;;;;;41.78;25.58;;;230.90;1561.60;;;;;;5109275;28;20035;-76
2021/03/04 06:50:59;;;;;;;41.60;26.60;;;256.70;1484.80;;;;;;5107772;28;20472;-74
2021/03/04 06:53:25;;;;;;;44.53;27.23;;;333.40;1331.20;;;;;;5110257;28;20030;-75
2021/03/04 06:55:56;;;;;;;42.28;24.58;;;410.00;1126.40;;;;;;5094229;28;20020;-75
2021/03/04 06:58:31;;;;;;;40.47;25.77;;;486.60;1024.00;;;;;;5091623;28;20020;-76
2021/03/04 07:01:07;;;;;;;33.60;22.33;;;487.30;921.60;;;;;;5091645;28;20031;-75
2021/03/04 07:03:49;;;;;;;32.17;22.25;;;537.80;921.60;;;;;;5091713;28;20066;-76
2021/03/04 07:06:19;;;;;;;29.10;19.90;;;563.40;870.40;;;;;;5102436;28;20023;-76
2021/03/04 07:08:48;;;;;;;33.90;22.40;;;588.80;844.80;;;;;;5091458;28;20160;-75
2021/03/04 07:11:16;;;;;;;30.30;20.95;;;589.70;819.20;;;;;;5091563;28;20103;-76
2021/03/04 07:13:43;;;;;;;28.58;19.98;;;640.10;742.40;;;;;;5088384;28;20020;-75
2021/03/04 07:16:18;;;;;;;27.88;19.55;;;665.70;768.00;;;;;;5091261;28;20358;-76
2021/03/04 07:18:50;;;;;;;30.98;22.50;;;640.40;742.40;;;;;;5090899;28;20012;-75
2021/03/04 07:21:17;;;;;;;29.30;20.02;;;665.90;742.40;;;;;;5090050;28;20028;-76
2021/03/04 07:23:45;;;;;;;30.65;20.67;;;666.20;742.40;;;;;;5091329;28;20022;-75
2021/03/04 07:26:12;;;;;;;33.88;21.73;;;691.20;742.40;;;;;;5091352;28;20500;-76
2021/03/04 07:28:40;;;;;;;30.02;20.20;;;716.80;716.80;;;;;;5090558;28;20024;-75
2021/03/04 07:31:07;;;;;;;33.10;22.85;;;717.70;665.60;;;;;;5091261;28;20024;-78
2021/03/04 07:33:35;;;;;;;33.00;22.73;;;717.00;691.20;;;;;;5091528;28;20032;-75
2021/03/04 07:36:08;;;;;;;30.33;21.02;;;743.30;665.60;;;;;;5091418;28;20632;-75
2021/03/04 07:38:35;;;;;;;32.42;22.98;;;768.90;640.00;;;;;;5091138;28;20023;-80
2021/03/04 07:41:03;;;;;;;30.50;21.25;;;743.30;665.60;;;;;;5091125;28;20020;-74
2021/03/04 07:43:41;;;;;;;29.30;21.70;;;768.50;640.00;;;;;;5091278;28;20425;-76
2021/03/04 07:46:06;;;;;;;27.70;20.00;;;794.30;640.00;;;;;;5089130;28;20039;-75
2021/03/04 07:48:32;;;;;;;26.80;20.48;;;794.00;640.00;;;;;;5091024;28;20129;-75
2021/03/04 07:50:59;;;;;;;34.55;25.30;;;819.60;614.40;;;;;;5090804;28;20028;-79
2021/03/04 07:53:25;;;;;;;24.90;19.13;;;794.10;640.00;;;;;;5091674;28;20024;-76
2021/03/04 07:55:51;;;;;;;24.73;18.70;;;819.30;614.40;;;;;;5072641;28;20020;-76
2021/03/04 07:58:17;;;;;;;27.35;19.48;;;819.20;614.40;;;;;;5090967;28;20016;-77
2021/03/04 08:00:43;;;;;;;25.02;19.55;;;820.10;588.80;;;;;;5097331;28;20027;-75
2021/03/04 08:03:09;;;;;;;29.23;22.08;;;768.40;640.00;;;;;;5090899;28;20028;-75
2021/03/04 08:05:39;;;;;;;30.27;21.13;;;793.70;640.00;;;;;;5091213;28;20481;-76
2021/03/04 08:08:19;;;;;;;28.30;21.83;;;820.00;588.80;;;;;;5090780;28;20048;-76
2021/03/04 08:10:56;;;;;;;28.02;21.23;;;794.50;640.00;;;;;;5091384;28;20089;-76
2021/03/04 08:13:41;;;;;;;29.30;21.83;;;819.80;614.40;;;;;;5091094;28;20062;-77
2021/03/04 08:16:14;;;;;;;23.95;18.15;;;819.40;614.40;;;;;;5091044;28;20039;-77
2021/03/04 08:18:41;;;;;;;26.55;19.45;;;794.00;640.00;;;;;;5090821;28;20460;-76
2021/03/04 08:21:08;;;;;;;30.85;21.25;;;870.70;588.80;;;;;;5091063;28;20110;-76
2021/03/04 08:23:41;;;;;;;30.33;19.20;;;896.70;537.60;;;;;;5090870;28;20032;-76
2021/03/04 08:26:08;;;;;;;35.67;22.40;;;922.50;537.60;;;;;;5090781;28;20044;-75
2021/03/04 08:28:34;;;;;;;24.95;18.63;;;922.50;537.60;;;;;;5090708;28;20054;-75
2021/03/04 08:31:06;;;;;;;24.77;18.48;;;922.50;512.00;;;;;;5091155;28;20465;-81
2021/03/04 08:33:32;;;;;;;23.42;18.15;;;921.80;537.60;;;;;;5094284;28;20107;-75
2021/03/04 08:36:00;;;;;;;25.38;18.15;;;870.90;563.20;;;;;;5094517;28;20059;-75
2021/03/04 08:38:26;;;;;;;20.50;16.20;;;845.40;588.80;;;;;;5094434;28;20016;-75
2021/03/04 08:40:57;;;;;;;19.67;14.20;;;922.40;537.60;;;;;;5080118;28;20024;-75
2021/03/04 08:43:24;;;;;;;17.38;13.73;;;922.00;537.60;;;;;;5094663;28;20043;-75
2021/03/04 08:45:52;;;;;;;21.52;15.90;;;896.70;537.60;;;;;;5094146;28;20020;-79
2021/03/04 08:48:18;;;;;;;20.45;16.35;;;896.90;537.60;;;;;;5094507;28;20028;-78
2021/03/04 08:50:52;;;;;;;22.42;15.23;;;870.70;588.80;;;;;;5093968;28;20491;-75
2021/03/04 08:53:19;;;;;;;18.98;14.75;;;947.40;512.00;;;;;;5094161;28;20016;-75
2021/03/04 08:55:46;;;;;;;19.55;16.00;;;973.00;512.00;;;;;;5094167;28;20110;-83
2021/03/04 08:58:12;;;;;;;18.67;15.40;;;998.90;512.00;;;;;;5094443;28;20069;-76
2021/03/04 09:00:38;;;;;;;24.60;18.15;;;973.50;512.00;;;;;;5094069;28;20020;-76
2021/03/04 09:03:08;;;;;;;20.42;15.48;;;973.10;537.60;;;;;;5096805;28;21486;-76
2021/03/04 09:05:34;;;;;;;21.15;16.33;;;922.50;537.60;;;;;;5105050;28;20028;-77
2021/03/04 09:08:07;;;;;;;18.98;15.45;;;973.50;512.00;;;;;;5093555;28;20062;-76
2021/03/04 09:10:49;;;;;;;18.15;15.15;;;1024.50;486.40;;;;;;5094046;28;20032;-75
2021/03/04 09:13:20;;;;;;;19.42;14.80;;;1075.60;460.80;;;;;;5093871;28;20035;-76
2021/03/04 09:15:48;;;;;;;17.80;14.43;;;1024.40;486.40;;;;;;5075847;28;20524;-78
2021/03/04 09:18:15;;;;;;;16.92;13.18;;;1024.40;486.40;;;;;;5093724;28;20028;-76
2021/03/04 09:20:42;;;;;;;17.58;13.60;;;1075.90;460.80;;;;;;5106292;28;20039;-76
2021/03/04 09:23:08;;;;;;;20.70;13.68;;;1101.30;460.80;;;;;;5112328;28;20024;-81
2021/03/04 09:25:34;;;;;;;18.23;13.10;;;1101.50;460.80;;;;;;5093824;28;20031;-81
2021/03/04 09:28:00;;;;;;;16.85;13.07;;;1127.00;460.80;;;;;;5104474;28;20076;-80
2021/03/04 09:30:30;;;;;;;18.65;14.18;;;1075.90;460.80;;;;;;5110340;28;20036;-76
2021/03/04 09:32:58;;;;;;;;;;;1100.90;486.40;;;;;;5111827;28;20024;-75
2021/03/04 09:35:24;;;;;;;16.02;12.05;;;1101.10;460.80;;;;;;5112260;28;19911;-78
2021/03/04 09:37:51;;;;;;;19.17;12.65;;;1075.30;460.80;;;;;;5113019;28;20027;-76
2021/03/04 09:40:30;;;;;;;19.63;14.95;;;1075.60;460.80;;;;;;5108568;28;20019;-75
2021/03/04 09:42:56;;;;;;;24.33;18.27;;;1101.10;460.80;;;;;;5105804;28;20031;-74
2021/03/04 09:45:22;;;;;;;16.95;13.23;;;1101.00;460.80;;;;;;5109104;28;20019;-77
2021/03/04 09:47:49;;;;;;;17.38;14.40;;;1101.60;435.20;;;;;;5110607;28;20404;-73
2021/03/04 09:50:26;;;;;;;16.50;11.38;;;1101.10;460.80;;;;;;5111263;28;20376;-73
2021/03/04 09:53:06;;;;;;;15.65;12.55;;;1101.20;435.20;;;;;;5110032;28;20023;-73
2021/03/04 09:55:39;;;;;;;;;;;1101.60;435.20;;;;;;5110938;28;20020;-74
2021/03/04 09:58:15;;;;;;;16.30;12.55;;;1100.80;460.80;;;;;;5102655;28;19914;-73
2021/03/04 10:00:41;;;;;;;15.93;12.15;;;1075.70;435.20;;;;;;5110428;28;20031;-73
2021/03/04 10:03:13;;;;;;;15.50;12.40;;;1152.40;435.20;;;;;;5092588;28;20026;-73
2021/03/04 10:05:50;;;;;;;16.30;12.98;;;1177.60;435.20;;;;;;5093016;28;20054;-73
2021/03/04 10:08:19;;;;;;;15.32;11.25;;;1178.20;409.60;;;;;;5092246;28;20385;-73
2021/03/04 10:10:49;;;;;;;14.88;11.23;;;1178.20;409.60;;;;;;5104396;28;20032;-77
2021/03/04 10:13:25;;;;;;;16.10;11.50;;;1152.70;435.20;;;;;;5106033;28;20080;-79
2021/03/04 10:15:51;;;;;;;15.55;11.50;;;1177.60;409.60;;;;;;5108695;28;20549;-73
2021/03/04 10:18:16;;;;;;;14.80;11.23;;;1126.60;460.80;;;;;;5106207;28;20036;-84
2021/03/04 10:20:45;;;;;;;13.32;11.65;;;1178.50;409.60;;;;;;5109448;28;20020;-74
2021/03/04 10:23:11;;;;;;;14.75;11.10;;;1177.70;409.60;;;;;;5107972;28;20051;-79
2021/03/04 10:25:37;;;;;;;15.27;11.57;;;1203.70;435.20;;;;;;5105902;28;20127;-81
2021/03/04 10:28:04;;;;;;;16.60;13.82;;;1229.30;460.80;;;;;;5108933;28;20458;-73
2021/03/04 10:30:32;;;;;;;15.23;12.50;;;1229.50;460.80;;;;;;5108674;28;20031;-74
2021/03/04 10:32:59;;;;;;;12.40;10.35;;;1280.00;486.40;;;;;;5110577;28;20031;-73
2021/03/04 10:35:25;;;;;;;15.02;12.60;;;1254.80;486.40;;;;;;5107482;28;20042;-72
2021/03/04 10:37:51;;;;;;;13.45;10.90;;;1229.40;460.80;;;;;;5106879;28;20519;-76
2021/03/04 10:40:18;;;;;;;13.48;10.70;;;1280.50;486.40;;;;;;5100927;28;20396;-76
2021/03/04 10:42:44;;;;;;;13.32;10.27;;;1331.70;512.00;;;;;;5093934;28;20048;-73
2021/03/04 10:45:13;;;;;;;13.25;10.45;;;1332.10;512.00;;;;;;5095849;28;20439;-69
2021/03/04 10:47:40;;;;;;;16.15;11.98;;;1356.80;537.60;;;;;;5106150;28;20440;-69
2021/03/04 10:50:09;;;;;;;13.57;11.18;;;1382.80;563.20;;;;;;5107611;28;20550;-69
2021/03/04 10:52:34;;;;;;;24.65;18.35;;;1408.40;563.20;;;;;;5104168;28;20035;-70
2021/03/04 10:55:00;;;;;;;19.63;11.77;;;1408.40;563.20;;;;;;5092034;28;20012;-70
2021/03/04 10:57:26;;;;;;;15.63;13.82;;;1408.00;563.20;;;;;;5091841;28;20031;-72
2021/03/04 10:59:52;;;;;;;16.02;12.27;;;1408.90;563.20;;;;;;5092209;28;20044;-73
2021/03/04 11:02:18;;;;;;;14.68;11.27;;;1434.30;588.80;;;;;;5108677;28;20517;-74
2021/03/04 11:04:44;;;;;;;16.35;13.30;;;1383.10;563.20;;;;;;5109264;28;20470;-74
2021/03/04 11:07:10;;;;;;;13.32;10.07;;;1357.40;537.60;;;;;;5092286;28;20126;-74
2021/03/04 11:09:36;;;;;;;15.52;11.35;;;1331.90;512.00;;;;;;5107565;28;20107;-74
2021/03/04 11:12:02;;;;;;;14.00;10.30;;;1383.10;563.20;;;;;;5107706;28;20027;-73
2021/03/04 11:14:28;;;;;;;13.10;10.40;;;1408.50;563.20;;;;;;5109174;28;20027;-74
2021/03/04 11:16:54;;;;;;;13.93;12.05;;;1434.50;588.80;;;;;;5108108;28;20019;-72
2021/03/04 11:19:20;;;;;;;14.95;12.05;;;1459.70;614.40;;;;;;5105409;28;20484;-72
2021/03/04 11:21:46;;;;;;;16.98;11.68;;;1459.30;614.40;;;;;;5090697;28;20032;-75
2021/03/04 11:24:13;;;;;;;13.60;10.65;;;1459.70;614.40;;;;;;5103669;28;20452;-74
2021/03/04 11:26:39;;;;;;;13.30;11.25;;;1460.10;614.40;;;;;;5103539;28;20106;-75
2021/03/04 11:29:09;;;;;;;13.35;11.32;;;1460.10;614.40;;;;;;5105916;28;20019;-79
2021/03/04 11:31:36;;;;;;;13.90;11.45;;;1484.80;640.00;;;;;;5111049;28;20020;-74
2021/03/04 11:34:01;;;;;;;15.00;12.85;;;1485.00;640.00;;;;;;5096651;28;20036;-74
2021/03/04 11:36:32;;;;;;;14.00;11.02;;;1459.30;614.40;;;;;;5110221;28;20028;-72
2021/03/04 11:38:58;;;;;;;13.25;10.52;;;1306.50;486.40;;;;;;5086570;28;20025;-74
2021/03/04 11:41:24;;;;;;;14.05;12.45;;;1356.80;537.60;;;;;;5106716;28;20056;-71
2021/03/04 11:43:50;;;;;;;12.73;9.88;;;1382.90;563.20;;;;;;5102180;28;20024;-71
2021/03/04 11:46:17;;;;;;;11.55;10.20;;;1408.20;563.20;;;;;;5109656;28;20072;-72
2021/03/04 11:48:43;;;;;;;12.90;10.82;;;1408.20;563.20;;;;;;5107815;28;20015;-75
2021/03/04 11:51:09;;;;;;;13.20;9.68;;;1408.00;563.20;;;;;;5108609;28;20529;-70
2021/03/04 11:53:34;;;;;;;11.15;9.57;;;1408.90;563.20;;;;;;5107922;28;20066;-72
2021/03/04 11:56:00;;;;;;;11.45;9.52;;;1434.30;588.80;;;;;;5106273;28;20032;-72
2021/03/04 11:58:27;;;;;;;10.13;8.93;;;1433.70;588.80;;;;;;5107989;28;20028;-72
2021/03/04 12:00:53;;;;;;;12.10;9.35;;;1408.70;563.20;;;;;;5104607;28;20023;-72
2021/03/04 12:03:20;;;;;;;16.60;14.70;;;1408.20;563.20;;;;;;5107658;28;20078;-73
2021/03/04 12:05:46;;;;;;;12.10;10.63;;;1433.90;588.80;;;;;;5110354;28;20361;-78
2021/03/04 12:08:12;;;;;;;10.63;9.38;;;1459.30;614.40;;;;;;5109157;28;20485;-76
2021/03/04 12:10:37;;;;;;;11.23;9.18;;;1434.10;588.80;;;;;;5104182;28;20031;-77